Time;durP1;ratioP1;P1;durP2;ratioP2;P2;SDS_P1;SDS_P2;PMS_P1;PMS_P2;Temp;Humidity;BMP_temperature;BMP_pressure;BME280_temperature;BME280_humidity;BME280_pressure;Samples;Min_cycle;Max_cycle;Signal;HPM_P1;HPM_P2
2024/02/05 00:00:30;;;;;;;31.02;11.75;;;;;;;8.55;100.00;101979.19;5076793;28;20161;-70
2024/02/05 00:02:56;;;;;;;31.20;12.02;;;;;;;8.52;100.00;101988.00;5063055;28;20085;-70
2024/02/05 00:05:21;;;;;;;26.50;11.98;;;;;;;8.55;100.00;101979.19;5044917;28;20028;-70
2024/02/05 00:07:47;;;;;;;29.48;10.98;;;;;;;8.53;100.00;101977.78;5049660;28;20016;-70
2024/02/05 00:10:13;;;;;;;29.70;11.43;;;;;;;8.50;100.00;101973.56;5071325;28;20032;-70
2024/02/05 00:12:38;;;;;;;37.35;12.05;;;;;;;8.52;100.00;101974.16;5079265;28;20078;-70
2024/02/05 00:15:05;;;;;;;29.83;12.13;;;;;;;8.48;100.00;101979.34;5073049;28;20035;-70
2024/02/05 00:17:31;;;;;;;26.60;10.23;;;;;;;8.46;100.00;101977.91;5069125;28;20427;-70
2024/02/05 00:19:57;;;;;;;25.23;11.27;;;;;;;8.48;100.00;101984.03;5058580;28;20089;-70
2024/02/05 00:22:22;;;;;;;25.50;11.80;;;;;;;8.46;100.00;101980.66;5053080;28;20071;-70
2024/02/05 00:24:47;;;;;;;31.05;11.27;;;;;;;8.43;100.00;101968.16;5058794;28;20529;-71
2024/02/05 00:27:14;;;;;;;29.73;11.50;;;;;;;8.45;100.00;101966.00;5068965;28;20028;-70
2024/02/05 00:29:39;;;;;;;30.58;11.18;;;;;;;8.45;100.00;101965.16;5053079;28;20032;-70
2024/02/05 00:32:05;;;;;;;29.13;10.88;;;;;;;8.42;100.00;101963.72;5070879;28;20081;-70
2024/02/05 00:34:30;;;;;;;26.88;10.93;;;;;;;8.42;100.00;101960.94;5078631;28;20036;-70
2024/02/05 00:36:56;;;;;;;30.45;11.20;;;;;;;8.44;100.00;101958.78;5050436;28;20032;-70
2024/02/05 00:39:21;;;;;;;28.38;10.52;;;;;;;8.47;100.00;101957.47;5069645;28;20428;-70
2024/02/05 00:41:47;;;;;;;29.67;10.93;;;;;;;8.45;100.00;101960.44;5064987;28;20050;-70
2024/02/05 00:44:12;;;;;;;21.80;9.93;;;;;;;8.45;100.00;101959.63;5083028;28;20472;-70
2024/02/05 00:46:37;;;;;;;28.77;10.27;;;;;;;8.42;100.00;101954.56;5047488;28;20047;-70
2024/02/05 00:49:04;;;;;;;25.05;10.00;;;;;;;8.42;100.00;101951.81;5051817;28;20393;-70
2024/02/05 00:51:30;;;;;;;23.20;10.50;;;;;;;8.43;100.00;101947.94;5064715;28;20108;-70
2024/02/05 00:53:57;;;;;;;32.58;11.23;;;;;;;8.41;100.00;101947.34;5057216;28;20056;-70
2024/02/05 00:56:23;;;;;;;22.27;10.80;;;;;;;8.58;100.00;101950.16;5065159;28;20059;-70
2024/02/05 00:58:49;;;;;;;26.02;9.55;;;;;;;8.47;100.00;101940.84;5064612;28;20116;-70
2024/02/05 01:01:14;;;;;;;23.13;10.30;;;;;;;8.50;100.00;101952.25;5098585;28;20024;-70
2024/02/05 01:03:42;;;;;;;29.05;9.85;;;;;;;8.39;100.00;101944.00;5049484;28;20650;-70
2024/02/05 01:06:08;;;;;;;28.27;9.95;;;;;;;8.41;100.00;101939.03;5057884;28;20529;-70
2024/02/05 01:08:34;;;;;;;22.08;9.90;;;;;;;8.35;100.00;101940.81;5057259;28;20024;-70
2024/02/05 01:10:59;;;;;;;23.05;9.05;;;;;;;8.39;100.00;101932.91;5069859;28;20043;-70
2024/02/05 01:13:26;;;;;;;21.60;9.63;;;;;;;8.37;100.00;101932.28;5062270;28;20030;-70
2024/02/05 01:15:51;;;;;;;21.63;9.77;;;;;;;8.34;100.00;101927.25;5084243;28;20038;-70
2024/02/05 01:18:16;;;;;;;22.38;9.23;;;;;;;8.34;100.00;101932.78;5070072;28;20028;-70
2024/02/05 01:20:42;;;;;;;26.25;9.02;;;;;;;8.33;100.00;101931.94;5081634;28;20032;-70
2024/02/05 01:23:07;;;;;;;25.35;9.00;;;;;;;8.32;100.00;101926.63;5071750;28;20103;-70
2024/02/05 01:25:33;;;;;;;23.98;8.85;;;;;;;8.30;100.00;101924.09;5081565;28;20480;-70
2024/02/05 01:27:58;;;;;;;24.98;8.75;;;;;;;8.29;100.00;101922.41;5099714;28;20028;-70
2024/02/05 01:30:24;;;;;;;25.58;9.25;;;;;;;8.29;100.00;101925.19;5067199;28;20028;-70
2024/02/05 01:32:49;;;;;;;22.90;8.10;;;;;;;8.29;100.00;101917.72;5070870;28;20496;-70
2024/02/05 01:35:15;;;;;;;26.70;9.20;;;;;;;8.29;100.00;101920.50;5099606;28;20032;-70
2024/02/05 01:37:41;;;;;;;22.92;9.02;;;;;;;8.28;100.00;101923.53;5065162;28;20028;-70
2024/02/05 01:40:10;;;;;;;24.17;8.35;;;;;;;8.27;100.00;101914.38;5050611;28;20028;-70
2024/02/05 01:42:39;;;;;;;22.83;8.63;;;;;;;8.29;100.00;101914.13;5054888;28;20054;-70
2024/02/05 01:45:05;;;;;;;25.80;8.65;;;;;;;8.25;100.00;101916.53;5053245;28;20102;-70
2024/02/05 01:47:34;;;;;;;26.42;9.40;;;;;;;8.28;100.00;101916.06;5060578;28;20036;-70
2024/02/05 01:50:00;;;;;;;21.95;8.57;;;;;;;8.28;100.00;101916.06;5089290;28;20084;-70
2024/02/05 01:52:25;;;;;;;22.27;8.30;;;;;;;8.26;100.00;101912.69;5079949;28;20032;-70
2024/02/05 01:54:51;;;;;;;21.02;8.70;;;;;;;8.26;100.00;101906.31;5092474;28;20032;-70
2024/02/05 01:57:17;;;;;;;22.05;9.00;;;;;;;8.26;100.00;101911.84;5082421;28;20020;-70
2024/02/05 01:59:43;;;;;;;23.92;8.85;;;;;;;8.26;100.00;101915.44;5050612;28;20039;-70
2024/02/05 02:02:08;;;;;;;22.45;7.57;;;;;;;8.28;100.00;101904.97;5065321;28;20400;-70
2024/02/05 02:04:34;;;;;;;23.70;8.88;;;;;;;8.25;100.00;101905.47;5051991;28;20035;-70
2024/02/05 02:06:59;;;;;;;22.90;8.32;;;;;;;8.26;100.00;101896.06;5080648;28;20027;-70
2024/02/05 02:09:25;;;;;;;19.13;7.90;;;;;;;8.26;100.00;101903.53;5071904;28;20032;-70
2024/02/05 02:11:51;;;;;;;26.05;8.30;;;;;;;8.26;100.00;101898.84;5060496;28;20040;-70
2024/02/05 02:14:17;;;;;;;22.13;9.15;;;;;;;8.24;100.00;101912.06;5052936;28;20024;-70
2024/02/05 02:16:43;;;;;;;25.27;9.05;;;;;;;8.25;100.00;101911.00;5055524;28;20062;-70
2024/02/05 02:19:27;;;;;;;23.77;8.50;;;;;;;8.26;100.00;101904.38;5088215;28;20047;-70
2024/02/05 02:22:19;;;;;;;23.02;8.00;;;;;;;8.25;100.00;101904.63;5098529;28;20040;-70
2024/02/05 02:24:44;;;;;;;28.52;8.35;;;;;;;8.25;100.00;101905.47;5081575;28;20511;-70
2024/02/05 02:27:10;;;;;;;21.55;7.93;;;;;;;8.21;100.00;101898.72;5080331;28;20028;-70
2024/02/05 02:29:35;;;;;;;26.42;8.75;;;;;;;8.21;100.00;101900.66;5059707;28;20086;-70
2024/02/05 02:32:12;;;;;;;22.75;7.78;;;;;;;8.21;100.00;101904.25;5074450;28;20084;-71
2024/02/05 02:34:37;;;;;;;24.38;8.15;;;;;;;8.21;100.00;101895.97;5071408;28;20031;-70
2024/02/05 02:37:05;;;;;;;20.60;8.35;;;;;;;8.19;100.00;101903.69;5052944;28;20468;-70
2024/02/05 02:39:33;;;;;;;28.48;8.65;;;;;;;8.21;100.00;101903.44;5048462;28;20027;-70
2024/02/05 02:42:00;;;;;;;22.08;8.48;;;;;;;8.20;100.00;101896.22;5041335;28;20513;-70
2024/02/05 02:44:25;;;;;;;23.42;8.50;;;;;;;8.19;100.00;101895.38;5051299;28;20105;-70
2024/02/05 02:46:52;;;;;;;21.67;8.82;;;;;;;8.20;100.00;101893.47;5056850;28;20040;-70
2024/02/05 02:49:17;;;;;;;19.55;8.75;;;;;;;8.18;100.00;101885.38;5080445;28;20056;-70
2024/02/05 02:51:43;;;;;;;23.58;8.55;;;;;;;8.20;100.00;101896.22;5086472;28;20085;-70
2024/02/05 02:54:09;;;;;;;30.42;8.82;;;;;;;8.16;100.00;101887.56;5074191;28;20408;-70
2024/02/05 02:56:35;;;;;;;21.05;8.30;;;;;;;8.16;100.00;101889.47;5050540;28;20086;-70
2024/02/05 02:59:00;;;;;;;21.38;8.15;;;;;;;8.15;100.00;101877.56;5079204;28;20089;-70
2024/02/05 03:01:26;;;;;;;21.10;8.00;;;;;;;8.19;100.00;101887.09;5084596;28;20020;-70
2024/02/05 03:03:51;;;;;;;22.05;8.50;;;;;;;8.18;100.00;101879.00;5073616;28;20028;-70
2024/02/05 03:06:16;;;;;;;26.92;8.90;;;;;;;8.16;100.00;101883.94;5049649;28;20043;-70
2024/02/05 03:08:42;;;;;;;22.35;9.23;;;;;;;8.15;100.00;101869.28;5066727;28;20024;-70
2024/02/05 03:11:07;;;;;;;23.50;9.32;;;;;;;8.18;100.00;101879.84;5086622;28;20040;-70
2024/02/05 03:13:33;;;;;;;25.00;9.38;;;;;;;8.19;100.00;101866.84;5079538;28;20438;-70
2024/02/05 03:15:59;;;;;;;23.98;8.70;;;;;;;8.16;100.00;101865.44;5086500;28;20028;-70
2024/02/05 03:18:24;;;;;;;26.48;9.85;;;;;;;8.15;100.00;101866.50;5079328;28;20028;-70
2024/02/05 03:20:49;;;;;;;23.27;8.05;;;;;;;8.14;100.00;101864.84;5049711;28;20033;-71
2024/02/05 03:23:16;;;;;;;29.75;9.65;;;;;;;8.15;100.00;101860.13;5062389;28;20064;-70
2024/02/05 03:25:41;;;;;;;23.33;9.48;;;;;;;8.13;100.00;101860.38;5048177;28;20393;-70
2024/02/05 03:28:10;;;;;;;26.73;9.30;;;;;;;8.13;100.00;101857.59;5062514;28;20024;-70
2024/02/05 03:30:36;;;;;;;20.15;8.10;;;;;;;8.13;100.00;101849.28;5086220;28;20031;-70
2024/02/05 03:33:02;;;;;;;28.38;8.95;;;;;;;8.14;100.00;101853.75;5070007;28;20028;-70
2024/02/05 03:35:28;;;;;;;19.95;8.65;;;;;;;8.15;100.00;101849.91;5068640;28;20680;-70
2024/02/05 03:37:53;;;;;;;24.00;8.43;;;;;;;8.15;100.00;101852.66;5062359;28;20056;-70
2024/02/05 03:40:22;;;;;;;23.25;8.15;;;;;;;8.13;100.00;101841.00;5083938;28;20695;-70
2024/02/05 03:42:51;;;;;;;23.48;8.98;;;;;;;8.10;100.00;101841.50;5068645;28;20020;-70
2024/02/05 03:45:16;;;;;;;24.42;9.27;;;;;;;8.12;100.00;101841.25;5060398;28;20036;-70
2024/02/05 03:47:43;;;;;;;24.23;8.77;;;;;;;8.07;100.00;101837.28;5069746;28;20515;-70
2024/02/05 03:50:10;;;;;;;21.45;8.95;;;;;;;8.08;100.00;101838.16;5065849;28;20032;-70
2024/02/05 03:52:43;;;;;;;24.45;9.65;;;;;;;8.09;100.00;101834.28;5051032;28;20476;-70
2024/02/05 03:55:08;;;;;;;25.05;8.93;;;;;;;8.06;100.00;101823.72;5084532;28;20028;-70
2024/02/05 03:57:35;;;;;;;23.58;8.90;;;;;;;8.08;100.00;101829.84;5045218;28;20047;-70
2024/02/05 04:00:01;;;;;;;22.98;8.68;;;;;;;8.05;100.00;101827.53;5040532;28;20020;-70
2024/02/05 04:02:28;;;;;;;25.90;8.82;;;;;;;8.07;100.00;101819.84;5061604;28;20510;-70
2024/02/05 04:04:55;;;;;;;20.27;9.00;;;;;;;8.08;100.00;101816.00;5065186;28;20028;-70
2024/02/05 04:07:20;;;;;;;24.77;9.10;;;;;;;8.06;100.00;101818.19;5050158;28;20016;-70
2024/02/05 04:09:46;;;;;;;26.60;9.00;;;;;;;8.06;100.00;101815.41;5066988;28;20024;-70
2024/02/05 04:12:11;;;;;;;21.38;8.50;;;;;;;8.04;100.00;101820.34;5078247;28;20024;-70
2024/02/05 04:14:37;;;;;;;28.42;9.00;;;;;;;8.05;100.00;101817.34;5064872;28;20085;-70
2024/02/05 04:17:03;;;;;;;28.42;8.43;;;;;;;8.07;100.00;101815.16;5078000;28;20035;-70
2024/02/05 04:19:28;;;;;;;23.55;9.50;;;;;;;8.06;100.00;101820.94;5078175;28;20190;-70
2024/02/05 04:21:53;;;;;;;24.55;8.70;;;;;;;8.04;100.00;101820.34;5037270;28;20100;-70
2024/02/05 04:24:19;;;;;;;33.88;9.65;;;;;;;8.02;100.00;101812.31;5066316;28;20062;-70
2024/02/05 04:26:46;;;;;;;29.42;9.15;;;;;;;8.05;100.00;101814.56;5045888;28;20472;-70
2024/02/05 04:29:14;;;;;;;32.70;9.23;;;;;;;8.05;100.00;101816.47;5082506;28;20051;-70
2024/02/05 04:31:40;;;;;;;28.23;8.57;;;;;;;8.03;100.00;101810.38;5046403;28;20035;-70
2024/02/05 04:34:06;;;;;;;24.13;9.00;;;;;;;8.01;100.00;101820.84;5081887;28;20028;-70
2024/02/05 04:36:31;;;;;;;21.65;8.82;;;;;;;8.01;100.00;101813.38;5069683;28;20027;-70
2024/02/05 04:38:57;;;;;;;18.13;8.32;;;;;;;7.98;100.00;101807.50;5063631;28;20035;-70
2024/02/05 04:41:23;;;;;;;23.88;9.02;;;;;;;8.00;100.00;101806.16;5062394;28;20034;-70
2024/02/05 04:43:49;;;;;;;27.08;8.75;;;;;;;7.99;100.00;101804.47;5070202;28;20281;-70
2024/02/05 04:46:15;;;;;;;25.88;8.63;;;;;;;7.98;100.00;101804.72;5063451;28;20055;-70
2024/02/05 04:48:40;;;;;;;23.15;8.73;;;;;;;7.97;100.00;101794.75;5064544;28;20028;-70
2024/02/05 04:51:10;;;;;;;25.58;8.45;;;;;;;7.97;100.00;101801.13;5060920;28;20028;-70
2024/02/05 04:53:36;;;;;;;20.00;8.30;;;;;;;7.96;100.00;101802.19;5070346;28;20028;-70
2024/02/05 04:56:02;;;;;;;23.85;8.52;;;;;;;7.97;100.00;101808.59;5027898;28;20023;-71
2024/02/05 04:58:27;;;;;;;23.33;8.60;;;;;;;7.95;100.00;101800.53;5047738;28;20028;-70
2024/02/05 05:00:53;;;;;;;23.27;8.38;;;;;;;7.95;100.00;101803.28;5060765;28;20035;-70
2024/02/05 05:03:18;;;;;;;23.90;8.02;;;;;;;7.95;100.00;101805.22;5087625;28;20103;-70
2024/02/05 05:05:44;;;;;;;26.25;8.35;;;;;;;7.93;100.00;101796.31;5060887;28;20040;-70
2024/02/05 05:08:09;;;;;;;31.60;9.68;;;;;;;7.94;100.00;101801.63;5062258;28;20066;-70
2024/02/05 05:10:35;;;;;;;27.67;8.95;;;;;;;7.96;100.00;101795.81;5077382;28;20036;-70
2024/02/05 05:13:04;;;;;;;20.50;8.50;;;;;;;7.95;100.00;101799.69;5077494;28;20024;-70
2024/02/05 05:15:30;;;;;;;21.63;8.73;;;;;;;7.93;100.00;101796.31;5077613;28;20115;-70
2024/02/05 05:17:55;;;;;;;25.27;8.48;;;;;;;7.91;100.00;101793.81;5095210;28;20070;-70
2024/02/05 05:20:21;;;;;;;22.25;8.50;;;;;;;7.90;100.00;101794.88;5044209;28;20039;-70
2024/02/05 05:22:46;;;;;;;27.85;9.18;;;;;;;7.90;100.00;101791.28;5047437;28;20497;-71
2024/02/05 05:25:12;;;;;;;22.52;8.32;;;;;;;7.89;100.00;101787.69;5077298;28;20388;-70
2024/02/05 05:27:37;;;;;;;24.17;7.95;;;;;;;7.88;100.00;101788.75;5077450;28;20023;-70
2024/02/05 05:30:03;;;;;;;22.33;8.05;;;;;;;7.90;100.00;101786.59;5061252;28;20036;-70
2024/02/05 05:32:29;;;;;;;21.70;9.20;;;;;;;7.90;100.00;101777.44;5052673;28;20028;-70
2024/02/05 05:34:55;;;;;;;25.45;8.77;;;;;;;7.90;100.00;101777.44;5049061;28;20033;-70
2024/02/05 05:37:20;;;;;;;19.63;9.13;;;;;;;7.85;100.00;101772.63;5055916;28;20028;-70
2024/02/05 05:39:45;;;;;;;23.75;9.00;;;;;;;7.87;100.00;101775.19;5071083;28;20399;-70
2024/02/05 05:42:12;;;;;;;23.23;8.55;;;;;;;7.84;100.00;101770.97;5056990;28;20032;-70
2024/02/05 05:44:37;;;;;;;24.30;8.75;;;;;;;7.84;100.00;101777.34;5086015;28;20024;-70
2024/02/05 05:47:03;;;;;;;24.00;9.40;;;;;;;7.84;100.00;101780.09;5054214;28;20761;-70
2024/02/05 05:49:28;;;;;;;23.75;8.57;;;;;;;7.84;100.00;101774.56;5060525;28;20028;-70
2024/02/05 05:51:54;;;;;;;21.95;8.48;;;;;;;7.83;100.00;101774.84;5081913;28;20760;-70
2024/02/05 05:54:20;;;;;;;22.35;9.20;;;;;;;7.80;100.00;101776.16;5068766;28;20040;-70
2024/02/05 05:56:46;;;;;;;23.27;8.27;;;;;;;7.83;100.00;101766.53;5066153;28;20035;-70
2024/02/05 05:59:12;;;;;;;23.58;8.23;;;;;;;7.82;100.00;101773.97;5059601;28;20036;-70
2024/02/05 06:01:37;;;;;;;20.20;8.35;;;;;;;7.79;100.00;101760.63;5082442;28;20469;-70
2024/02/05 06:04:03;;;;;;;24.83;8.13;;;;;;;7.82;100.00;101762.91;5062366;28;20032;-70
2024/02/05 06:06:28;;;;;;;24.10;9.00;;;;;;;7.80;100.00;101759.56;5086402;28;20035;-70
2024/02/05 06:08:54;;;;;;;29.73;9.32;;;;;;;7.78;100.00;101758.13;5064011;28;20196;-70
2024/02/05 06:11:19;;;;;;;22.85;9.32;;;;;;;7.78;100.00;101755.38;5086365;28;20039;-70
2024/02/05 06:13:44;;;;;;;21.00;8.70;;;;;;;7.78;100.00;101758.97;5055487;28;20089;-70
2024/02/05 06:16:10;;;;;;;23.15;8.18;;;;;;;7.76;100.00;101755.59;5086061;28;20480;-70
2024/02/05 06:18:35;;;;;;;23.27;7.97;;;;;;;7.76;100.00;101758.34;5072244;28;20031;-70
2024/02/05 06:21:01;;;;;;;25.25;8.75;;;;;;;7.76;100.00;101757.53;5062724;28;20553;-70
2024/02/05 06:23:26;;;;;;;22.23;9.23;;;;;;;7.77;100.00;101757.28;5077828;28;20040;-70
2024/02/05 06:25:52;;;;;;;25.73;9.00;;;;;;;7.75;100.00;101756.69;5074766;28;20039;-70
2024/02/05 06:28:17;;;;;;;25.20;9.35;;;;;;;7.73;100.00;101760.78;5047109;28;20031;-70
2024/02/05 06:30:49;;;;;;;20.60;8.63;;;;;;;7.77;100.00;101754.53;5069260;28;20028;-70
2024/02/05 06:33:16;;;;;;;28.50;9.25;;;;;;;7.73;100.00;101756.09;5074212;28;20028;-70
2024/02/05 06:35:42;;;;;;;20.30;8.85;;;;;;;7.73;100.00;101750.56;5066829;28;20060;-70
2024/02/05 06:38:07;;;;;;;26.65;8.30;;;;;;;7.72;100.00;101751.66;5063428;28;20032;-70
2024/02/05 06:40:33;;;;;;;21.10;7.72;;;;;;;7.71;100.00;101749.13;5071459;28;20028;-70
2024/02/05 06:42:58;;;;;;;21.50;8.05;;;;;;;7.73;100.00;101742.25;5089064;28;20032;-70
2024/02/05 06:45:24;;;;;;;24.88;9.18;;;;;;;7.70;100.00;101742.75;5057480;28;20056;-70
2024/02/05 06:47:51;;;;;;;24.48;8.50;;;;;;;7.70;100.00;101742.75;5090826;28;20047;-70
2024/02/05 06:50:17;;;;;;;23.60;7.97;;;;;;;7.70;100.00;101742.75;5086134;28;20032;-70
2024/02/05 06:52:42;;;;;;;25.38;8.63;;;;;;;7.71;100.00;101744.41;5061392;28;20085;-70
2024/02/05 06:55:08;;;;;;;21.25;7.60;;;;;;;7.73;100.00;101746.97;5049873;28;20071;-70
2024/02/05 06:57:34;;;;;;;23.75;7.90;;;;;;;7.68;100.00;101744.09;5046518;28;20027;-70
2024/02/05 07:00:00;;;;;;;21.45;8.10;;;;;;;7.66;100.00;101746.25;5068879;28;20028;-70
2024/02/05 07:02:26;;;;;;;23.45;8.48;;;;;;;7.68;100.00;101747.69;5044453;28;20028;-70
2024/02/05 07:04:51;;;;;;;25.55;8.70;;;;;;;7.68;100.00;101744.91;5063419;28;20016;-70
2024/02/05 07:07:17;;;;;;;20.75;7.65;;;;;;;7.65;100.00;101741.81;5070448;28;20424;-70
2024/02/05 07:09:42;;;;;;;23.88;8.07;;;;;;;7.65;100.00;101737.09;5054714;28;20028;-70
2024/02/05 07:12:08;;;;;;;16.63;7.43;;;;;;;7.65;100.00;101742.63;5045510;28;20031;-71
2024/02/05 07:14:33;;;;;;;17.38;7.43;;;;;;;7.64;100.00;101743.75;5057215;28;20088;-70
2024/02/05 07:16:58;;;;;;;19.02;7.75;;;;;;;7.64;100.00;101738.22;5079910;28;20036;-70
2024/02/05 07:19:25;;;;;;;20.63;7.72;;;;;;;7.61;100.00;101736.78;5074645;28;20080;-70
2024/02/05 07:21:50;;;;;;;21.40;7.57;;;;;;;7.65;100.00;101734.34;5063939;28;20034;-70
2024/02/05 07:24:16;;;;;;;20.83;7.07;;;;;;;7.63;100.00;101735.69;5052340;28;20032;-70
2024/02/05 07:26:41;;;;;;;19.98;7.07;;;;;;;7.63;100.00;101741.19;5060012;28;20036;-70
2024/02/05 07:29:07;;;;;;;22.80;6.93;;;;;;;7.63;100.00;101743.97;5077783;28;20032;-70
2024/02/05 07:31:32;;;;;;;19.25;6.65;;;;;;;7.62;100.00;101740.38;5062415;28;20380;-70
2024/02/05 07:33:58;;;;;;;18.52;6.50;;;;;;;7.61;100.00;101749.75;5088567;28;20031;-70
2024/02/05 07:36:23;;;;;;;18.63;7.22;;;;;;;7.64;100.00;101743.75;5070349;28;20036;-70
2024/02/05 07:38:49;;;;;;;22.70;7.18;;;;;;;7.62;100.00;101751.44;5088142;28;20031;-70
2024/02/05 07:41:15;;;;;;;20.85;6.00;;;;;;;7.63;100.00;101747.56;5054522;28;20039;-70
2024/02/05 07:43:41;;;;;;;20.50;6.85;;;;;;;7.61;100.00;101747.84;5090632;28;20031;-70
2024/02/05 07:46:09;;;;;;;19.67;5.90;;;;;;;7.63;100.00;101755.03;5056403;28;20032;-70
2024/02/05 07:48:35;;;;;;;22.67;6.82;;;;;;;7.64;100.00;101753.97;5069904;28;20065;-70
2024/02/05 07:51:04;;;;;;;16.65;5.80;;;;;;;7.63;100.00;101750.34;5071076;28;20028;-70
2024/02/05 07:53:30;;;;;;;16.60;6.13;;;;;;;7.60;100.00;101748.06;5064142;28;20065;-70
2024/02/05 07:55:55;;;;;;;19.38;6.32;;;;;;;7.60;100.00;101750.81;5060598;28;20040;-70
2024/02/05 07:58:21;;;;;;;15.73;5.30;;;;;;;7.61;100.00;101752.53;5058387;28;20032;-70
2024/02/05 08:00:47;;;;;;;17.98;6.03;;;;;;;7.58;100.00;101755.78;5045169;28;20036;-70
2024/02/05 08:03:13;;;;;;;18.05;5.85;;;;;;;7.59;100.00;101762.97;5048788;28;20033;-70
2024/02/05 08:05:39;;;;;;;18.08;5.88;;;;;;;7.60;100.00;101754.44;5028767;28;20498;-70
2024/02/05 08:08:05;;;;;;;18.10;5.53;;;;;;;7.60;100.00;101765.50;5056386;28;20024;-70
2024/02/05 08:10:31;;;;;;;16.67;6.28;;;;;;;7.61;100.00;101755.28;5061226;28;20109;-70
2024/02/05 08:12:57;;;;;;;15.15;5.90;;;;;;;7.61;100.00;101755.28;5083802;28;20028;-70
2024/02/05 08:15:22;;;;;;;20.45;5.70;;;;;;;7.63;100.00;101758.63;5061684;28;20392;-70
2024/02/05 08:17:48;;;;;;;14.13;5.43;;;;;;;7.62;100.00;101762.50;5075792;28;20032;-70
2024/02/05 08:20:14;;;;;;;19.58;6.10;;;;;;;7.64;100.00;101760.31;5078170;28;20054;-70
2024/02/05 08:22:40;;;;;;;17.63;5.10;;;;;;;7.64;100.00;101756.72;5064823;28;20036;-70
2024/02/05 08:25:06;;;;;;;19.30;5.35;;;;;;;7.65;100.00;101761.16;5060579;28;20027;-70
2024/02/05 08:27:32;;;;;;;11.88;5.18;;;;;;;7.66;100.00;101755.41;5066142;28;20488;-70
2024/02/05 08:29:58;;;;;;;10.30;5.20;;;;;;;7.67;100.00;101765.38;5069221;28;20024;-70
2024/02/05 08:32:24;;;;;;;14.60;5.18;;;;;;;7.66;100.00;101762.84;5095580;28;20035;-70
2024/02/05 08:34:49;;;;;;;13.10;5.15;;;;;;;7.68;100.00;101757.91;5061305;28;20032;-71
2024/02/05 08:37:14;;;;;;;15.32;5.55;;;;;;;7.68;100.00;101750.44;5069308;28;20039;-70
2024/02/05 08:39:42;;;;;;;14.95;5.00;;;;;;;7.70;100.00;101756.56;5052409;28;20420;-70
2024/02/05 08:42:07;;;;;;;14.02;4.72;;;;;;;7.71;100.00;101755.47;5054531;28;20031;-70
2024/02/05 08:44:32;;;;;;;14.48;5.03;;;;;;;7.73;100.00;101755.25;5066833;28;20028;-70
2024/02/05 08:46:58;;;;;;;15.15;5.63;;;;;;;7.75;100.00;101755.84;5059117;28;20408;-70
2024/02/05 08:49:23;;;;;;;15.20;5.28;;;;;;;7.76;100.00;101760.28;5044343;28;20063;-70
2024/02/05 08:51:49;;;;;;;18.20;5.75;;;;;;;7.75;100.00;101756.69;5081343;28;20043;-70
2024/02/05 08:54:14;;;;;;;14.20;5.65;;;;;;;7.80;100.00;101762.34;5094449;28;20023;-70
2024/02/05 08:56:40;;;;;;;12.02;5.05;;;;;;;7.81;100.00;101754.88;5095873;28;20046;-70
2024/02/05 08:59:05;;;;;;;15.20;5.57;;;;;;;7.84;100.00;101754.38;5060618;28;20024;-70
2024/02/05 09:01:31;;;;;;;18.80;6.60;;;;;;;7.83;100.00;101748.00;5084406;28;20028;-70
2024/02/05 09:03:57;;;;;;;16.17;5.53;;;;;;;7.86;100.00;101751.38;5044156;28;20020;-70
2024/02/05 09:06:22;;;;;;;18.10;6.07;;;;;;;7.87;100.00;101747.50;5064331;28;20028;-70
2024/02/05 09:08:48;;;;;;;11.82;5.15;;;;;;;7.86;100.00;101754.97;5072576;28;20020;-70
2024/02/05 09:11:13;;;;;;;18.98;5.50;;;;;;;7.90;100.00;101744.25;5062178;28;20032;-70
2024/02/05 09:13:39;;;;;;;18.45;6.22;;;;;;;7.92;100.00;101742.09;5057870;28;20032;-70
2024/02/05 09:16:04;;;;;;;13.10;5.15;;;;;;;7.93;100.00;101744.59;5069113;28;20032;-71
2024/02/05 09:18:30;;;;;;;14.77;5.43;;;;;;;7.97;100.00;101742.19;5060585;28;20043;-70
2024/02/05 09:20:55;;;;;;;13.18;5.10;;;;;;;7.98;100.00;101746.63;5064258;28;20029;-70
2024/02/05 09:23:21;;;;;;;14.63;5.72;;;;;;;8.01;100.00;101741.44;5059139;28;20504;-70
2024/02/05 09:25:46;;;;;;;16.38;5.97;;;;;;;8.02;100.00;101740.38;5071009;28;20090;-70
2024/02/05 09:28:12;;;;;;;15.65;5.82;;;;;;;8.04;100.00;101742.88;5058389;28;20033;-70
2024/02/05 09:30:38;;;;;;;13.40;5.25;;;;;;;8.05;100.00;101734.34;5049818;28;20085;-70
2024/02/05 09:33:05;;;;;;;12.10;4.85;;;;;;;8.07;100.00;101731.31;5085697;28;20024;-70
2024/02/05 09:35:31;;;;;;;18.48;5.43;;;;;;;8.11;100.00;101720.56;5055891;28;20048;-70
2024/02/05 09:37:56;;;;;;;11.95;4.97;;;;;;;8.15;100.00;101725.38;5077344;28;20367;-70
2024/02/05 09:40:22;;;;;;;13.25;4.82;;;;;;;8.17;100.00;101727.91;5042981;28;20024;-70
2024/02/05 09:42:47;;;;;;;15.77;5.53;;;;;;;8.19;100.00;101723.81;5046565;28;20032;-70
2024/02/05 09:45:13;;;;;;;20.48;5.88;;;;;;;8.21;100.00;101724.38;5074246;28;20052;-70
2024/02/05 09:47:40;;;;;;;16.05;5.05;;;;;;;8.24;100.00;101726.63;5062742;28;20045;-70
2024/02/05 09:50:06;;;;;;;19.00;5.55;;;;;;;8.26;100.00;101727.25;5027176;28;20033;-70
2024/02/05 09:52:35;;;;;;;16.73;5.57;;;;;;;8.28;100.00;101727.84;5024180;28;20029;-70
2024/02/05 09:55:01;;;;;;;16.80;5.30;;;;;;;8.31;100.00;101731.19;5014473;28;20500;-70
2024/02/05 09:57:29;;;;;;;12.60;4.70;;;;;;;8.36;100.00;101734.03;5038719;28;20022;-70
2024/02/05 09:59:55;;;;;;;14.38;5.05;;;;;;;8.37;100.00;101721.91;5014433;28;20425;-70
2024/02/05 10:02:20;;;;;;;17.05;5.15;;;;;;;8.42;100.00;101716.47;5038403;28;20118;-70
2024/02/05 10:04:46;;;;;;;13.25;4.78;;;;;;;8.47;100.00;101720.19;5044337;28;20398;-70
2024/02/05 10:07:15;;;;;;;14.35;4.90;;;;;;;8.51;100.00;101720.50;5039218;28;20494;-70
2024/02/05 10:09:41;;;;;;;14.75;4.65;;;;;;;8.53;100.00;101715.56;5046279;28;20071;-70
2024/02/05 10:12:08;;;;;;;14.45;4.70;;;;;;;8.58;100.00;101715.66;5039717;28;20030;-70
2024/02/05 10:14:34;;;;;;;12.55;4.47;;;;;;;8.60;100.00;101710.69;5013139;28;20174;-70
2024/02/05 10:17:00;;;;;;;11.27;3.92;;;;;;;8.65;100.00;101719.09;5029767;28;20032;-70
2024/02/05 10:19:25;;;;;;;10.05;4.05;;;;;;;8.68;100.00;101713.03;5045963;28;20043;-70
2024/02/05 10:21:53;;;;;;;11.23;4.18;;;;;;;8.73;100.00;101712.28;5057223;28;20025;-70
2024/02/05 10:24:18;;;;;;;10.30;4.60;;;;;;;8.81;100.00;101711.03;5013016;28;20154;-70
2024/02/05 10:26:44;;;;;;;11.30;4.20;;;;;;;8.84;100.00;101708.59;5040365;28;20055;-71
2024/02/05 10:29:12;;;;;;;16.08;4.43;;;;;;;8.89;100.00;101707.84;5058207;28;20028;-70
2024/02/05 10:31:49;;;;;;;8.35;3.78;;;;;;;8.95;100.00;101707.66;5037022;28;20040;-70
2024/02/05 10:34:19;;;;;;;8.35;3.63;;;;;;;9.03;100.00;101711.94;5024012;28;20091;-70
2024/02/05 10:36:44;;;;;;;12.20;3.75;;;;;;;9.06;100.00;101711.41;5053668;28;20382;-71
2024/02/05 10:39:10;;;;;;;12.60;3.60;;;;;;;9.12;100.00;101715.94;5042320;28;20037;-70
2024/02/05 10:41:38;;;;;;;9.88;3.22;;;;;;;9.22;100.00;101719.94;5036590;28;20075;-71
2024/02/05 10:44:04;;;;;;;12.27;2.75;;;;;;;9.25;100.00;101717.50;5028036;28;20044;-70
2024/02/05 10:46:33;;;;;;;9.23;3.40;;;;;;;9.31;100.00;101718.44;5025284;28;20704;-70
2024/02/05 10:48:59;;;;;;;8.35;2.55;;;;;;;9.36;100.00;101718.47;5025263;28;20035;-70
2024/02/05 10:51:26;;;;;;;12.90;2.85;;;;;;;9.39;100.00;101713.28;5037265;28;20036;-70
2024/02/05 10:53:51;;;;;;;10.15;3.78;;;;;;;9.43;100.00;101707.22;5038955;28;20052;-70
2024/02/05 10:56:17;;;;;;;8.15;3.10;;;;;;;9.47;100.00;101716.69;5023277;28;20028;-70
2024/02/05 10:58:43;;;;;;;10.55;2.85;;;;;;;9.51;100.00;101707.59;5030622;28;20032;-70
2024/02/05 11:01:08;;;;;;;10.48;2.83;;;;;;;9.52;100.00;101709.25;5036677;28;20029;-70
2024/02/05 11:03:37;;;;;;;10.02;2.70;;;;;;;9.56;100.00;101704.88;5053135;28;20280;-70
2024/02/05 11:06:03;;;;;;;8.88;2.30;;;;;;;9.57;100.00;101703.78;5034295;28;20117;-70
2024/02/05 11:08:29;;;;;;;8.88;2.00;;;;;;;9.61;100.00;101707.72;5042575;28;20388;-70
2024/02/05 11:10:55;;;;;;;6.50;2.22;;;;;;;9.65;100.00;101707.22;5021679;28;20109;-70